sensor_id;sensor_type;location;lat;lon;timestamp;temperature;humidity
7494;DHT22;3788;49.902;8.590;2024-01-30T00:01:06;2.80;99.90
7494;DHT22;3788;49.902;8.590;2024-01-30T00:03:33;2.80;99.90
7494;DHT22;3788;49.902;8.590;2024-01-30T00:05:59;2.80;99.90
7494;DHT22;3788;49.902;8.590;2024-01-30T00:08:27;2.80;99.90
7494;DHT22;3788;49.902;8.590;2024-01-30T00:10:54;2.80;99.90
7494;DHT22;3788;49.902;8.590;2024-01-30T00:13:20;2.80;99.90
7494;DHT22;3788;49.902;8.590;2024-01-30T00:15:48;2.80;99.90
7494;DHT22;3788;49.902;8.590;2024-01-30T00:18:14;2.80;99.90
7494;DHT22;3788;49.902;8.590;2024-01-30T00:20:41;2.80;99.90
7494;DHT22;3788;49.902;8.590;2024-01-30T00:23:08;2.70;99.90
7494;DHT22;3788;49.902;8.590;2024-01-30T00:25:36;2.70;99.90
7494;DHT22;3788;49.902;8.590;2024-01-30T00:28:03;2.70;99.90
7494;DHT22;3788;49.902;8.590;2024-01-30T00:30:30;2.60;99.90
7494;DHT22;3788;49.902;8.590;2024-01-30T00:32:56;2.60;99.90
7494;DHT22;3788;49.902;8.590;2024-01-30T00:35:23;2.60;99.90
7494;DHT22;3788;49.902;8.590;2024-01-30T00:37:49;2.60;99.90
7494;DHT22;3788;49.902;8.590;2024-01-30T00:40:16;2.60;99.90
7494;DHT22;3788;49.902;8.590;2024-01-30T00:42:44;2.60;99.90
7494;DHT22;3788;49.902;8.590;2024-01-30T00:45:15;2.60;99.90
7494;DHT22;3788;49.902;8.590;2024-01-30T00:47:42;2.60;99.90
7494;DHT22;3788;49.902;8.590;2024-01-30T00:50:09;2.60;99.90
7494;DHT22;3788;49.902;8.590;2024-01-30T00:52:36;2.60;99.90
7494;DHT22;3788;49.902;8.590;2024-01-30T00:55:05;2.60;99.90
7494;DHT22;3788;49.902;8.590;2024-01-30T00:57:31;2.60;99.90
7494;DHT22;3788;49.902;8.590;2024-01-30T00:59:59;2.50;99.90
7494;DHT22;3788;49.902;8.590;2024-01-30T01:02:26;2.50;99.90
7494;DHT22;3788;49.902;8.590;2024-01-30T01:04:53;2.50;99.90
7494;DHT22;3788;49.902;8.590;2024-01-30T01:07:19;2.50;99.90
7494;DHT22;3788;49.902;8.590;2024-01-30T01:09:46;2.50;99.90
7494;DHT22;3788;49.902;8.590;2024-01-30T01:12:13;2.50;99.90
7494;DHT22;3788;49.902;8.590;2024-01-30T01:14:39;2.50;99.90
7494;DHT22;3788;49.902;8.590;2024-01-30T01:17:07;2.60;99.90
7494;DHT22;3788;49.902;8.590;2024-01-30T01:19:34;2.50;99.90
7494;DHT22;3788;49.902;8.590;2024-01-30T01:22:01;2.50;99.90
7494;DHT22;3788;49.902;8.590;2024-01-30T01:24:29;2.50;99.90
7494;DHT22;3788;49.902;8.590;2024-01-30T01:26:56;2.50;99.90
7494;DHT22;3788;49.902;8.590;2024-01-30T01:29:23;2.40;99.90
7494;DHT22;3788;49.902;8.590;2024-01-30T01:31:54;2.40;99.90
7494;DHT22;3788;49.902;8.590;2024-01-30T01:34:22;2.30;99.90
7494;DHT22;3788;49.902;8.590;2024-01-30T01:36:49;2.30;99.90
7494;DHT22;3788;49.902;8.590;2024-01-30T01:39:16;2.30;99.90
7494;DHT22;3788;49.902;8.590;2024-01-30T01:41:43;2.20;99.90
7494;DHT22;3788;49.902;8.590;2024-01-30T01:44:09;2.20;99.90
7494;DHT22;3788;49.902;8.590;2024-01-30T01:46:36;2.30;99.90
7494;DHT22;3788;49.902;8.590;2024-01-30T01:49:05;2.30;99.90
7494;DHT22;3788;49.902;8.590;2024-01-30T01:51:34;2.30;99.90
7494;DHT22;3788;49.902;8.590;2024-01-30T01:54:03;2.40;99.90
7494;DHT22;3788;49.902;8.590;2024-01-30T01:56:31;2.40;99.90
7494;DHT22;3788;49.902;8.590;2024-01-30T01:59:01;2.40;99.90
7494;DHT22;3788;49.902;8.590;2024-01-30T02:01:31;2.40;99.90
7494;DHT22;3788;49.902;8.590;2024-01-30T02:03:59;2.40;99.90
7494;DHT22;3788;49.902;8.590;2024-01-30T02:06:26;2.40;99.90
7494;DHT22;3788;49.902;8.590;2024-01-30T02:08:54;2.40;99.90
7494;DHT22;3788;49.902;8.590;2024-01-30T02:11:22;2.30;99.90
7494;DHT22;3788;49.902;8.590;2024-01-30T02:13:49;2.30;99.90
7494;DHT22;3788;49.902;8.590;2024-01-30T02:16:15;2.20;99.90
7494;DHT22;3788;49.902;8.590;2024-01-30T02:18:42;2.20;99.90
7494;DHT22;3788;49.902;8.590;2024-01-30T02:21:14;2.20;99.90
7494;DHT22;3788;49.902;8.590;2024-01-30T02:23:41;2.20;99.90
7494;DHT22;3788;49.902;8.590;2024-01-30T02:26:09;2.10;99.90
7494;DHT22;3788;49.902;8.590;2024-01-30T02:28:36;2.10;99.90
7494;DHT22;3788;49.902;8.590;2024-01-30T02:31:03;2.10;99.90
7494;DHT22;3788;49.902;8.590;2024-01-30T02:33:30;2.10;99.90
7494;DHT22;3788;49.902;8.590;2024-01-30T02:35:57;2.10;99.90
7494;DHT22;3788;49.902;8.590;2024-01-30T02:38:26;2.10;99.90
7494;DHT22;3788;49.902;8.590;2024-01-30T02:40:54;2.10;99.90
7494;DHT22;3788;49.902;8.590;2024-01-30T02:43:21;2.10;99.90
7494;DHT22;3788;49.902;8.590;2024-01-30T02:45:47;2.10;99.90
7494;DHT22;3788;49.902;8.590;2024-01-30T02:48:14;2.10;99.90
7494;DHT22;3788;49.902;8.590;2024-01-30T02:50:40;2.10;99.90
7494;DHT22;3788;49.902;8.590;2024-01-30T02:53:07;2.00;99.90
7494;DHT22;3788;49.902;8.590;2024-01-30T02:55:35;2.00;99.90
7494;DHT22;3788;49.902;8.590;2024-01-30T02:58:02;2.00;99.90
7494;DHT22;3788;49.902;8.590;2024-01-30T03:00:28;1.90;99.90
7494;DHT22;3788;49.902;8.590;2024-01-30T03:02:55;1.90;99.90
7494;DHT22;3788;49.902;8.590;2024-01-30T03:05:22;1.90;99.90
7494;DHT22;3788;49.902;8.590;2024-01-30T03:07:48;1.90;99.90
7494;DHT22;3788;49.902;8.590;2024-01-30T03:10:15;1.90;99.90
7494;DHT22;3788;49.902;8.590;2024-01-30T03:12:43;1.90;99.90
7494;DHT22;3788;49.902;8.590;2024-01-30T03:15:10;1.90;99.90
7494;DHT22;3788;49.902;8.590;2024-01-30T03:17:36;1.80;99.90
7494;DHT22;3788;49.902;8.590;2024-01-30T03:20:03;1.80;99.90
7494;DHT22;3788;49.902;8.590;2024-01-30T03:22:31;1.80;99.90
7494;DHT22;3788;49.902;8.590;2024-01-30T03:27:26;1.80;99.90
7494;DHT22;3788;49.902;8.590;2024-01-30T03:29:54;1.70;99.90
7494;DHT22;3788;49.902;8.590;2024-01-30T03:32:21;1.70;99.90
7494;DHT22;3788;49.902;8.590;2024-01-30T03:34:47;1.60;99.90
7494;DHT22;3788;49.902;8.590;2024-01-30T03:37:14;1.70;99.90
7494;DHT22;3788;49.902;8.590;2024-01-30T03:39:41;1.70;99.90
7494;DHT22;3788;49.902;8.590;2024-01-30T03:42:07;1.70;99.90
7494;DHT22;3788;49.902;8.590;2024-01-30T03:44:34;1.70;99.90
7494;DHT22;3788;49.902;8.590;2024-01-30T03:47:02;1.70;99.90
7494;DHT22;3788;49.902;8.590;2024-01-30T03:49:29;1.70;99.90
7494;DHT22;3788;49.902;8.590;2024-01-30T03:51:56;1.70;99.90
7494;DHT22;3788;49.902;8.590;2024-01-30T03:54:22;1.70;99.90
7494;DHT22;3788;49.902;8.590;2024-01-30T03:56:49;1.70;99.90
7494;DHT22;3788;49.902;8.590;2024-01-30T03:59:16;1.70;99.90
7494;DHT22;3788;49.902;8.590;2024-01-30T04:01:43;1.60;99.90
7494;DHT22;3788;49.902;8.590;2024-01-30T04:04:14;1.60;99.90
7494;DHT22;3788;49.902;8.590;2024-01-30T04:06:40;1.60;99.90
7494;DHT22;3788;49.902;8.590;2024-01-30T04:09:10;1.60;99.90
7494;DHT22;3788;49.902;8.590;2024-01-30T04:11:38;1.60;99.90
7494;DHT22;3788;49.902;8.590;2024-01-30T04:14:05;1.60;99.90
7494;DHT22;3788;49.902;8.590;2024-01-30T04:16:31;1.60;99.90
7494;DHT22;3788;49.902;8.590;2024-01-30T04:18:58;1.60;99.90
7494;DHT22;3788;49.902;8.590;2024-01-30T04:21:26;1.60;99.90
7494;DHT22;3788;49.902;8.590;2024-01-30T04:23:53;1.60;99.90
7494;DHT22;3788;49.902;8.590;2024-01-30T04:26:20;1.50;99.90
7494;DHT22;3788;49.902;8.590;2024-01-30T04:28:48;1.60;99.90
7494;DHT22;3788;49.902;8.590;2024-01-30T04:31:15;1.50;99.90
7494;DHT22;3788;49.902;8.590;2024-01-30T04:33:41;1.50;99.90
7494;DHT22;3788;49.902;8.590;2024-01-30T04:36:08;1.50;99.90
7494;DHT22;3788;49.902;8.590;2024-01-30T04:38:37;1.50;99.90
7494;DHT22;3788;49.902;8.590;2024-01-30T04:41:05;1.60;99.90
7494;DHT22;3788;49.902;8.590;2024-01-30T04:43:32;1.50;99.90
7494;DHT22;3788;49.902;8.590;2024-01-30T04:45:58;1.50;99.90
7494;DHT22;3788;49.902;8.590;2024-01-30T04:48:25;1.50;99.90
7494;DHT22;3788;49.902;8.590;2024-01-30T04:50:51;1.50;99.90
7494;DHT22;3788;49.902;8.590;2024-01-30T04:53:18;1.50;99.90
7494;DHT22;3788;49.902;8.590;2024-01-30T04:55:46;1.50;99.90
7494;DHT22;3788;49.902;8.590;2024-01-30T04:58:13;1.50;99.90
7494;DHT22;3788;49.902;8.590;2024-01-30T05:00:40;1.60;99.90
7494;DHT22;3788;49.902;8.590;2024-01-30T05:03:06;1.60;99.90
7494;DHT22;3788;49.902;8.590;2024-01-30T05:05:33;1.60;99.90
7494;DHT22;3788;49.902;8.590;2024-01-30T05:08:00;1.60;99.90
7494;DHT22;3788;49.902;8.590;2024-01-30T05:10:26;1.50;99.90
7494;DHT22;3788;49.902;8.590;2024-01-30T05:12:55;1.50;99.90
7494;DHT22;3788;49.902;8.590;2024-01-30T05:15:22;1.50;99.90
7494;DHT22;3788;49.902;8.590;2024-01-30T05:17:48;1.50;99.90
7494;DHT22;3788;49.902;8.590;2024-01-30T05:20:16;1.50;99.90
7494;DHT22;3788;49.902;8.590;2024-01-30T05:22:42;1.50;99.90
7494;DHT22;3788;49.902;8.590;2024-01-30T05:25:10;1.60;99.90
7494;DHT22;3788;49.902;8.590;2024-01-30T05:27:37;1.60;99.90
7494;DHT22;3788;49.902;8.590;2024-01-30T05:30:06;1.60;99.90
7494;DHT22;3788;49.902;8.590;2024-01-30T05:32:33;1.60;99.90
7494;DHT22;3788;49.902;8.590;2024-01-30T05:35:00;1.60;99.90
7494;DHT22;3788;49.902;8.590;2024-01-30T05:37:26;1.60;99.90
7494;DHT22;3788;49.902;8.590;2024-01-30T05:39:53;1.50;99.90
7494;DHT22;3788;49.902;8.590;2024-01-30T05:42:19;1.50;99.90
7494;DHT22;3788;49.902;8.590;2024-01-30T05:44:46;1.50;99.90
7494;DHT22;3788;49.902;8.590;2024-01-30T05:47:14;1.50;99.90
7494;DHT22;3788;49.902;8.590;2024-01-30T05:49:41;1.50;99.90
7494;DHT22;3788;49.902;8.590;2024-01-30T05:52:07;1.50;99.90
7494;DHT22;3788;49.902;8.590;2024-01-30T05:54:35;1.50;99.90
7494;DHT22;3788;49.902;8.590;2024-01-30T05:57:02;1.50;99.90
7494;DHT22;3788;49.902;8.590;2024-01-30T05:59:28;1.50;99.90
7494;DHT22;3788;49.902;8.590;2024-01-30T06:01:55;1.50;99.90
7494;DHT22;3788;49.902;8.590;2024-01-30T06:04:23;1.50;99.90
7494;DHT22;3788;49.902;8.590;2024-01-30T06:06:50;1.60;99.90
7494;DHT22;3788;49.902;8.590;2024-01-30T06:09:16;1.50;99.90
7494;DHT22;3788;49.902;8.590;2024-01-30T06:11:43;1.50;99.90
7494;DHT22;3788;49.902;8.590;2024-01-30T06:14:10;1.50;99.90
7494;DHT22;3788;49.902;8.590;2024-01-30T06:16:36;1.60;99.90
7494;DHT22;3788;49.902;8.590;2024-01-30T06:19:03;1.50;99.90
7494;DHT22;3788;49.902;8.590;2024-01-30T06:21:31;1.50;99.90
7494;DHT22;3788;49.902;8.590;2024-01-30T06:24:02;1.50;99.90
7494;DHT22;3788;49.902;8.590;2024-01-30T06:26:28;1.50;99.90
7494;DHT22;3788;49.902;8.590;2024-01-30T06:28:55;1.50;99.90
7494;DHT22;3788;49.902;8.590;2024-01-30T06:31:22;1.40;99.90
7494;DHT22;3788;49.902;8.590;2024-01-30T06:33:49;1.40;99.90
7494;DHT22;3788;49.902;8.590;2024-01-30T06:36:16;1.40;99.90
7494;DHT22;3788;49.902;8.590;2024-01-30T06:38:44;1.40;99.90
7494;DHT22;3788;49.902;8.590;2024-01-30T06:41:13;1.30;99.90
7494;DHT22;3788;49.902;8.590;2024-01-30T06:43:40;1.30;99.90
7494;DHT22;3788;49.902;8.590;2024-01-30T06:46:07;1.30;99.90
7494;DHT22;3788;49.902;8.590;2024-01-30T06:48:34;1.30;99.90
7494;DHT22;3788;49.902;8.590;2024-01-30T06:51:00;1.30;99.90
7494;DHT22;3788;49.902;8.590;2024-01-30T06:53:29;1.30;99.90
7494;DHT22;3788;49.902;8.590;2024-01-30T06:55:57;1.30;99.90
7494;DHT22;3788;49.902;8.590;2024-01-30T06:58:24;1.30;99.90
7494;DHT22;3788;49.902;8.590;2024-01-30T07:00:51;1.40;99.90
7494;DHT22;3788;49.902;8.590;2024-01-30T07:03:18;1.40;99.90
7494;DHT22;3788;49.902;8.590;2024-01-30T07:05:45;1.40;99.90
7494;DHT22;3788;49.902;8.590;2024-01-30T07:08:12;1.50;99.90
7494;DHT22;3788;49.902;8.590;2024-01-30T07:10:40;1.40;99.90
7494;DHT22;3788;49.902;8.590;2024-01-30T07:13:08;1.50;99.90
7494;DHT22;3788;49.902;8.590;2024-01-30T07:15:35;1.50;99.90
7494;DHT22;3788;49.902;8.590;2024-01-30T07:18:03;1.40;99.90
7494;DHT22;3788;49.902;8.590;2024-01-30T07:20:31;1.40;99.90
7494;DHT22;3788;49.902;8.590;2024-01-30T07:22:58;1.50;99.90
7494;DHT22;3788;49.902;8.590;2024-01-30T07:25:24;1.60;99.90
7494;DHT22;3788;49.902;8.590;2024-01-30T07:27:52;1.60;99.90
7494;DHT22;3788;49.902;8.590;2024-01-30T07:30:20;1.60;99.90
7494;DHT22;3788;49.902;8.590;2024-01-30T07:32:50;1.70;99.90
7494;DHT22;3788;49.902;8.590;2024-01-30T07:35:17;1.70;99.90
7494;DHT22;3788;49.902;8.590;2024-01-30T07:37:44;1.80;99.90
7494;DHT22;3788;49.902;8.590;2024-01-30T07:40:10;1.80;99.90
7494;DHT22;3788;49.902;8.590;2024-01-30T07:42:38;1.80;99.90
7494;DHT22;3788;49.902;8.590;2024-01-30T07:45:05;1.90;99.90
7494;DHT22;3788;49.902;8.590;2024-01-30T07:47:36;1.90;99.90
7494;DHT22;3788;49.902;8.590;2024-01-30T07:50:03;1.90;99.90
7494;DHT22;3788;49.902;8.590;2024-01-30T07:52:29;1.90;99.90
7494;DHT22;3788;49.902;8.590;2024-01-30T07:54:56;2.00;99.90
7494;DHT22;3788;49.902;8.590;2024-01-30T07:57:23;2.00;99.90
7494;DHT22;3788;49.902;8.590;2024-01-30T07:59:50;2.10;99.90
7494;DHT22;3788;49.902;8.590;2024-01-30T08:02:16;2.20;99.90
7494;DHT22;3788;49.902;8.590;2024-01-30T08:04:45;2.30;99.90
7494;DHT22;3788;49.902;8.590;2024-01-30T08:07:15;2.50;99.90
7494;DHT22;3788;49.902;8.590;2024-01-30T08:09:43;2.60;99.90
7494;DHT22;3788;49.902;8.590;2024-01-30T08:12:09;2.80;99.90
7494;DHT22;3788;49.902;8.590;2024-01-30T08:14:37;2.90;99.90
7494;DHT22;3788;49.902;8.590;2024-01-30T08:17:04;3.00;99.90
7494;DHT22;3788;49.902;8.590;2024-01-30T08:19:31;3.10;99.90
7494;DHT22;3788;49.902;8.590;2024-01-30T08:21:59;3.20;99.90
7494;DHT22;3788;49.902;8.590;2024-01-30T08:24:27;3.30;99.90
7494;DHT22;3788;49.902;8.590;2024-01-30T08:26:54;3.40;99.90
7494;DHT22;3788;49.902;8.590;2024-01-30T08:29:20;3.50;99.90
7494;DHT22;3788;49.902;8.590;2024-01-30T08:31:47;3.60;99.90
7494;DHT22;3788;49.902;8.590;2024-01-30T08:34:14;3.70;99.90
7494;DHT22;3788;49.902;8.590;2024-01-30T08:36:42;3.90;99.90
7494;DHT22;3788;49.902;8.590;2024-01-30T08:39:12;4.00;99.90
7494;DHT22;3788;49.902;8.590;2024-01-30T08:41:38;4.10;99.90
7494;DHT22;3788;49.902;8.590;2024-01-30T08:44:05;4.30;99.90
7494;DHT22;3788;49.902;8.590;2024-01-30T08:46:32;4.60;99.90
7494;DHT22;3788;49.902;8.590;2024-01-30T08:48:59;4.80;99.90
7494;DHT22;3788;49.902;8.590;2024-01-30T08:51:26;5.00;99.90
7494;DHT22;3788;49.902;8.590;2024-01-30T08:53:52;5.10;99.90
7494;DHT22;3788;49.902;8.590;2024-01-30T08:56:20;5.10;99.90
7494;DHT22;3788;49.902;8.590;2024-01-30T08:58:47;5.10;99.90
7494;DHT22;3788;49.902;8.590;2024-01-30T09:01:14;5.10;99.90
7494;DHT22;3788;49.902;8.590;2024-01-30T09:03:41;5.10;99.90
7494;DHT22;3788;49.902;8.590;2024-01-30T09:06:09;5.20;99.90
7494;DHT22;3788;49.902;8.590;2024-01-30T09:08:36;5.20;99.90
7494;DHT22;3788;49.902;8.590;2024-01-30T09:11:08;5.10;99.90
7494;DHT22;3788;49.902;8.590;2024-01-30T09:13:37;5.10;99.90
7494;DHT22;3788;49.902;8.590;2024-01-30T09:16:04;5.00;99.90
7494;DHT22;3788;49.902;8.590;2024-01-30T09:18:31;5.00;99.90
7494;DHT22;3788;49.902;8.590;2024-01-30T09:20:58;5.00;99.90
7494;DHT22;3788;49.902;8.590;2024-01-30T09:23:25;5.00;99.90
7494;DHT22;3788;49.902;8.590;2024-01-30T09:25:51;5.00;99.90
7494;DHT22;3788;49.902;8.590;2024-01-30T09:28:18;5.00;99.90
7494;DHT22;3788;49.902;8.590;2024-01-30T09:30:46;5.00;99.90
7494;DHT22;3788;49.902;8.590;2024-01-30T09:33:13;5.00;99.90
7494;DHT22;3788;49.902;8.590;2024-01-30T09:35:39;5.00;99.90
7494;DHT22;3788;49.902;8.590;2024-01-30T09:38:06;5.10;99.90
7494;DHT22;3788;49.902;8.590;2024-01-30T09:40:33;5.10;99.90
7494;DHT22;3788;49.902;8.590;2024-01-30T09:42:59;5.20;99.90
7494;DHT22;3788;49.902;8.590;2024-01-30T09:45:26;5.20;99.90
7494;DHT22;3788;49.902;8.590;2024-01-30T09:47:54;5.30;99.90
7494;DHT22;3788;49.902;8.590;2024-01-30T09:50:22;5.40;99.90
7494;DHT22;3788;49.902;8.590;2024-01-30T09:52:49;5.40;99.90
7494;DHT22;3788;49.902;8.590;2024-01-30T09:55:18;5.50;99.90
7494;DHT22;3788;49.902;8.590;2024-01-30T09:57:45;5.60;99.90
7494;DHT22;3788;49.902;8.590;2024-01-30T10:00:13;5.70;99.90
7494;DHT22;3788;49.902;8.590;2024-01-30T10:02:40;5.80;99.90
7494;DHT22;3788;49.902;8.590;2024-01-30T10:05:09;5.90;99.90
7494;DHT22;3788;49.902;8.590;2024-01-30T10:07:36;5.90;99.90
7494;DHT22;3788;49.902;8.590;2024-01-30T10:10:05;6.00;99.90
7494;DHT22;3788;49.902;8.590;2024-01-30T10:12:32;6.00;99.90
7494;DHT22;3788;49.902;8.590;2024-01-30T10:14:59;6.00;99.90
7494;DHT22;3788;49.902;8.590;2024-01-30T10:17:26;6.10;99.90
7494;DHT22;3788;49.902;8.590;2024-01-30T10:19:52;6.10;99.90
7494;DHT22;3788;49.902;8.590;2024-01-30T10:22:20;6.20;99.90
7494;DHT22;3788;49.902;8.590;2024-01-30T10:24:48;6.20;99.90
7494;DHT22;3788;49.902;8.590;2024-01-30T10:27:15;6.20;99.90
7494;DHT22;3788;49.902;8.590;2024-01-30T10:29:41;6.20;99.90
7494;DHT22;3788;49.902;8.590;2024-01-30T10:32:08;6.30;99.90
7494;DHT22;3788;49.902;8.590;2024-01-30T10:34:35;6.30;99.90
7494;DHT22;3788;49.902;8.590;2024-01-30T10:37:07;6.30;99.90
7494;DHT22;3788;49.902;8.590;2024-01-30T10:39:39;6.40;99.90
7494;DHT22;3788;49.902;8.590;2024-01-30T10:42:07;6.40;99.90
7494;DHT22;3788;49.902;8.590;2024-01-30T10:44:43;6.50;99.90
7494;DHT22;3788;49.902;8.590;2024-01-30T10:47:12;6.50;99.90
7494;DHT22;3788;49.902;8.590;2024-01-30T10:49:41;6.60;99.90
7494;DHT22;3788;49.902;8.590;2024-01-30T10:52:09;6.60;99.90
7494;DHT22;3788;49.902;8.590;2024-01-30T10:54:39;6.60;99.90
7494;DHT22;3788;49.902;8.590;2024-01-30T10:57:07;6.60;99.90
7494;DHT22;3788;49.902;8.590;2024-01-30T10:59:35;6.60;99.90
7494;DHT22;3788;49.902;8.590;2024-01-30T11:02:02;6.70;99.90
7494;DHT22;3788;49.902;8.590;2024-01-30T11:04:36;6.70;99.90
7494;DHT22;3788;49.902;8.590;2024-01-30T11:07:13;6.80;99.90
7494;DHT22;3788;49.902;8.590;2024-01-30T11:09:48;6.80;99.90
7494;DHT22;3788;49.902;8.590;2024-01-30T11:12:15;6.90;99.90
7494;DHT22;3788;49.902;8.590;2024-01-30T11:14:41;7.00;99.90
7494;DHT22;3788;49.902;8.590;2024-01-30T11:17:09;7.00;99.90
7494;DHT22;3788;49.902;8.590;2024-01-30T11:19:38;7.00;99.90
7494;DHT22;3788;49.902;8.590;2024-01-30T11:22:06;7.10;99.90
7494;DHT22;3788;49.902;8.590;2024-01-30T11:24:38;7.10;99.90
7494;DHT22;3788;49.902;8.590;2024-01-30T11:27:09;7.10;99.90
7494;DHT22;3788;49.902;8.590;2024-01-30T11:29:36;7.10;99.90
7494;DHT22;3788;49.902;8.590;2024-01-30T11:32:03;7.10;99.90
7494;DHT22;3788;49.902;8.590;2024-01-30T11:34:30;7.10;99.90
7494;DHT22;3788;49.902;8.590;2024-01-30T11:37:00;7.10;99.90
7494;DHT22;3788;49.902;8.590;2024-01-30T11:39:30;7.20;99.90
7494;DHT22;3788;49.902;8.590;2024-01-30T11:41:57;7.20;99.90
7494;DHT22;3788;49.902;8.590;2024-01-30T11:44:26;7.30;99.90
7494;DHT22;3788;49.902;8.590;2024-01-30T11:46:53;7.30;99.90
7494;DHT22;3788;49.902;8.590;2024-01-30T11:49:19;7.40;99.90
7494;DHT22;3788;49.902;8.590;2024-01-30T11:51:46;7.40;99.90
7494;DHT22;3788;49.902;8.590;2024-01-30T11:54:14;7.50;99.90
7494;DHT22;3788;49.902;8.590;2024-01-30T11:56:42;7.60;99.90
7494;DHT22;3788;49.902;8.590;2024-01-30T11:59:09;7.70;99.90
7494;DHT22;3788;49.902;8.590;2024-01-30T12:01:37;7.80;99.90
7494;DHT22;3788;49.902;8.590;2024-01-30T12:04:04;7.90;99.90
7494;DHT22;3788;49.902;8.590;2024-01-30T12:06:34;8.10;99.90
7494;DHT22;3788;49.902;8.590;2024-01-30T12:09:02;8.20;99.90
7494;DHT22;3788;49.902;8.590;2024-01-30T12:11:30;8.30;99.90
7494;DHT22;3788;49.902;8.590;2024-01-30T12:13:57;8.40;99.90
7494;DHT22;3788;49.902;8.590;2024-01-30T12:16:24;8.40;99.90
7494;DHT22;3788;49.902;8.590;2024-01-30T12:18:59;8.50;99.90
7494;DHT22;3788;49.902;8.590;2024-01-30T12:21:26;8.50;99.90
7494;DHT22;3788;49.902;8.590;2024-01-30T12:23:53;8.50;99.90
7494;DHT22;3788;49.902;8.590;2024-01-30T12:26:20;8.50;99.90
7494;DHT22;3788;49.902;8.590;2024-01-30T12:28:50;8.60;99.90
7494;DHT22;3788;49.902;8.590;2024-01-30T12:31:17;8.70;99.90
7494;DHT22;3788;49.902;8.590;2024-01-30T12:33:43;8.80;99.90
7494;DHT22;3788;49.902;8.590;2024-01-30T12:36:12;8.80;99.90
7494;DHT22;3788;49.902;8.590;2024-01-30T12:38:39;8.80;99.90
7494;DHT22;3788;49.902;8.590;2024-01-30T12:41:07;8.80;99.90
7494;DHT22;3788;49.902;8.590;2024-01-30T12:43:35;8.80;99.90
7494;DHT22;3788;49.902;8.590;2024-01-30T12:46:03;8.90;99.90
7494;DHT22;3788;49.902;8.590;2024-01-30T12:48:29;9.00;99.90
7494;DHT22;3788;49.902;8.590;2024-01-30T12:50:56;9.10;99.90
7494;DHT22;3788;49.902;8.590;2024-01-30T12:53:24;9.30;99.90
7494;DHT22;3788;49.902;8.590;2024-01-30T12:55:51;9.40;99.90
7494;DHT22;3788;49.902;8.590;2024-01-30T12:58:19;9.40;99.90
7494;DHT22;3788;49.902;8.590;2024-01-30T13:00:46;9.50;99.90
7494;DHT22;3788;49.902;8.590;2024-01-30T13:03:14;9.60;99.90
7494;DHT22;3788;49.902;8.590;2024-01-30T13:05:40;9.60;99.90
7494;DHT22;3788;49.902;8.590;2024-01-30T13:08:07;9.70;99.90
7494;DHT22;3788;49.902;8.590;2024-01-30T13:10:35;9.70;99.90
7494;DHT22;3788;49.902;8.590;2024-01-30T13:13:02;9.80;99.90
7494;DHT22;3788;49.902;8.590;2024-01-30T13:15:29;9.90;99.90
7494;DHT22;3788;49.902;8.590;2024-01-30T13:17:55;9.90;99.90
7494;DHT22;3788;49.902;8.590;2024-01-30T13:20:22;9.90;99.90
7494;DHT22;3788;49.902;8.590;2024-01-30T13:22:49;10.00;99.90
7494;DHT22;3788;49.902;8.590;2024-01-30T13:25:16;10.00;99.90
7494;DHT22;3788;49.902;8.590;2024-01-30T13:27:43;10.00;99.90
7494;DHT22;3788;49.902;8.590;2024-01-30T13:30:11;10.00;99.90
7494;DHT22;3788;49.902;8.590;2024-01-30T13:32:37;9.90;99.90
7494;DHT22;3788;49.902;8.590;2024-01-30T13:35:06;9.90;99.90
7494;DHT22;3788;49.902;8.590;2024-01-30T13:37:33;9.90;99.90
7494;DHT22;3788;49.902;8.590;2024-01-30T13:40:00;9.80;99.90
7494;DHT22;3788;49.902;8.590;2024-01-30T13:42:27;9.80;99.90
7494;DHT22;3788;49.902;8.590;2024-01-30T13:44:55;9.80;99.90
7494;DHT22;3788;49.902;8.590;2024-01-30T13:47:22;9.80;99.80
7494;DHT22;3788;49.902;8.590;2024-01-30T13:49:48;9.80;99.60
7494;DHT22;3788;49.902;8.590;2024-01-30T13:52:15;9.80;99.70
7494;DHT22;3788;49.902;8.590;2024-01-30T13:54:42;9.80;99.50
7494;DHT22;3788;49.902;8.590;2024-01-30T13:57:09;9.80;99.30
7494;DHT22;3788;49.902;8.590;2024-01-30T13:59:38;9.80;99.10
7494;DHT22;3788;49.902;8.590;2024-01-30T14:02:06;9.80;99.20
7494;DHT22;3788;49.902;8.590;2024-01-30T14:04:35;9.90;99.20
7494;DHT22;3788;49.902;8.590;2024-01-30T14:07:02;9.90;98.90
7494;DHT22;3788;49.902;8.590;2024-01-30T14:09:29;9.90;99.00
7494;DHT22;3788;49.902;8.590;2024-01-30T14:11:57;9.90;99.10
7494;DHT22;3788;49.902;8.590;2024-01-30T14:14:24;9.90;99.10
7494;DHT22;3788;49.902;8.590;2024-01-30T14:16:51;9.80;99.10
7494;DHT22;3788;49.902;8.590;2024-01-30T14:19:19;9.80;99.00
7494;DHT22;3788;49.902;8.590;2024-01-30T14:21:46;9.80;99.00
7494;DHT22;3788;49.902;8.590;2024-01-30T14:24:12;9.80;98.90
7494;DHT22;3788;49.902;8.590;2024-01-30T14:26:39;9.80;99.00
7494;DHT22;3788;49.902;8.590;2024-01-30T14:29:06;9.80;99.00
7494;DHT22;3788;49.902;8.590;2024-01-30T14:31:32;9.70;99.00
7494;DHT22;3788;49.902;8.590;2024-01-30T14:33:59;9.70;98.80
7494;DHT22;3788;49.902;8.590;2024-01-30T14:36:27;9.70;98.90
7494;DHT22;3788;49.902;8.590;2024-01-30T14:38:54;9.70;99.00
7494;DHT22;3788;49.902;8.590;2024-01-30T14:41:21;9.70;99.00
7494;DHT22;3788;49.902;8.590;2024-01-30T14:43:48;9.70;99.10
7494;DHT22;3788;49.902;8.590;2024-01-30T14:46:15;9.70;99.10
7494;DHT22;3788;49.902;8.590;2024-01-30T14:48:41;9.70;99.10
7494;DHT22;3788;49.902;8.590;2024-01-30T14:51:09;9.70;99.10
7494;DHT22;3788;49.902;8.590;2024-01-30T14:53:37;9.70;99.10
7494;DHT22;3788;49.902;8.590;2024-01-30T14:56:04;9.70;99.10
7494;DHT22;3788;49.902;8.590;2024-01-30T14:58:31;9.70;99.10
7494;DHT22;3788;49.902;8.590;2024-01-30T15:00:58;9.70;99.20
7494;DHT22;3788;49.902;8.590;2024-01-30T15:03:24;9.70;99.30
7494;DHT22;3788;49.902;8.590;2024-01-30T15:05:51;9.60;99.30
7494;DHT22;3788;49.902;8.590;2024-01-30T15:08:20;9.60;99.40
7494;DHT22;3788;49.902;8.590;2024-01-30T15:10:48;9.60;99.60
7494;DHT22;3788;49.902;8.590;2024-01-30T15:13:16;9.60;99.70
7494;DHT22;3788;49.902;8.590;2024-01-30T15:15:43;9.60;99.80
7494;DHT22;3788;49.902;8.590;2024-01-30T15:18:10;9.60;99.90
7494;DHT22;3788;49.902;8.590;2024-01-30T15:20:36;9.60;99.90
7494;DHT22;3788;49.902;8.590;2024-01-30T15:23:03;9.60;99.90
7494;DHT22;3788;49.902;8.590;2024-01-30T15:25:30;9.50;99.90
7494;DHT22;3788;49.902;8.590;2024-01-30T15:27:58;9.60;99.90
7494;DHT22;3788;49.902;8.590;2024-01-30T15:30:25;9.60;99.90
7494;DHT22;3788;49.902;8.590;2024-01-30T15:32:51;9.50;99.90
7494;DHT22;3788;49.902;8.590;2024-01-30T15:35:18;9.60;99.90
7494;DHT22;3788;49.902;8.590;2024-01-30T15:37:45;9.50;99.90
7494;DHT22;3788;49.902;8.590;2024-01-30T15:40:13;9.60;99.90
7494;DHT22;3788;49.902;8.590;2024-01-30T15:42:39;9.50;99.90
7494;DHT22;3788;49.902;8.590;2024-01-30T15:45:07;9.50;99.90
7494;DHT22;3788;49.902;8.590;2024-01-30T15:47:34;9.50;99.90
7494;DHT22;3788;49.902;8.590;2024-01-30T15:50:02;9.50;99.90
7494;DHT22;3788;49.902;8.590;2024-01-30T15:52:29;9.50;99.90
7494;DHT22;3788;49.902;8.590;2024-01-30T15:54:56;9.50;99.90
7494;DHT22;3788;49.902;8.590;2024-01-30T15:57:22;9.50;99.90
7494;DHT22;3788;49.902;8.590;2024-01-30T15:59:49;9.50;99.90
7494;DHT22;3788;49.902;8.590;2024-01-30T16:02:17;9.50;99.90
7494;DHT22;3788;49.902;8.590;2024-01-30T16:04:45;9.50;99.90
7494;DHT22;3788;49.902;8.590;2024-01-30T16:07:12;9.50;99.90
7494;DHT22;3788;49.902;8.590;2024-01-30T16:09:39;9.40;99.90
7494;DHT22;3788;49.902;8.590;2024-01-30T16:12:06;9.40;99.90
7494;DHT22;3788;49.902;8.590;2024-01-30T16:14:33;9.40;99.90
7494;DHT22;3788;49.902;8.590;2024-01-30T16:17:01;9.40;99.90
7494;DHT22;3788;49.902;8.590;2024-01-30T16:19:29;9.40;99.90